Latest Weather Observations for Penrith

IDN60901

Issued at 10:01 pm EDT Sunday 16 December 2018 (issued every 10 minutes, with the page automatically refreshed every 10 minutes)

About weather observations | Map of Sydney area stations | Latest observations for Sydney area | Other Formats
Station Details ID: 067113 Name: PENRITH LAKES AWS Lat: -33.72 Lon: 150.68 Height: 24.7 m
Data from the previous 72 hours. | See also: Recent months at Penrith
Date/Time
EDT
Temp
°C
App
Temp
°C
Dew
Point
°C
Rel
Hum
%
Delta-T
°C
Wind Press
QNH
hPa
Press
MSL
hPa
Rain since
9am
mm
Dir  Spd
km/h
Gust
km/h
Spd
kts
Gust
kts
16/10:00pm 24.6 27.5 20.7 79 2.6 NNE 6 6 3 3 - - 0.2
16/09:30pm 25.2 28.0 20.5 75 3.1 NNE 6 9 3 5 - - 0.2
16/09:00pm 25.9 27.9 20.7 73 3.4 NE 11 15 6 8 - - 0.2
16/08:30pm 26.6 29.1 20.2 68 4.2 ENE 7 13 4 7 - - 0.2
16/08:00pm 27.1 28.0 20.0 65 4.6 NNE 15 20 8 11 - - 0.2
16/07:30pm 27.6 27.6 19.7 62 5.1 NNE 19 24 10 13 - - 0.2
16/07:00pm 28.5 27.5 18.9 56 6.2 NNE 22 30 12 16 - - 0.2
16/06:30pm 29.0 27.0 18.4 52 6.8 NNE 26 37 14 20 - - 0.2
16/06:00pm 28.6 26.0 19.5 58 5.9 NNE 32 46 17 25 - - 0.2
16/05:30pm 30.4 29.8 22.6 63 5.3 NE 30 39 16 21 - - 0.2
16/05:00pm 31.3 30.3 21.2 55 6.8 ENE 28 39 15 21 - - 0.2
16/04:30pm 33.8 34.9 21.2 47 8.5 ENE 17 24 9 13 - - 0.2
16/04:00pm 36.1 34.7 12.3 24 14.3 WNW 11 19 6 10 - - 0.2
16/03:30pm 35.6 32.2 12.5 24 13.9 NNW 22 35 12 19 - - 0.2
16/03:00pm 35.7 32.5 12.0 24 14.2 N 20 30 11 16 - - 0.2
16/02:30pm 35.4 32.5 13.0 26 13.6 N 20 32 11 17 - - 0.2
16/02:00pm 35.1 31.0 12.7 26 13.5 N 26 35 14 19 - - 0.2
16/01:30pm 35.1 31.4 12.7 26 13.5 NW 24 39 13 21 - - 0.2
16/01:00pm 34.6 31.9 13.4 28 12.9 NW 20 32 11 17 - - 0.2
16/12:30pm 33.8 33.8 17.1 37 10.7 N 13 19 7 10 - - 0.2
16/12:00pm 31.9 33.5 19.2 47 8.3 NNE 9 13 5 7 - - 0.2
16/11:30am 29.1 32.9 21.6 64 5.0 E 4 9 2 5 - - 0.2
16/11:00am 28.3 32.3 22.1 69 4.2 SE 4 9 2 5 - - 0.2
16/10:30am 27.0 31.1 22.2 75 3.2 ESE 4 7 2 4 - - 0.2
16/10:00am 25.6 29.2 21.3 77 2.8 ENE 4 9 2 5 - - 0.0
16/09:30am 24.3 27.9 21.2 83 2.0 S 4 7 2 4 - - 0.0
16/09:00am 23.0 26.2 20.5 86 1.6 NE 4 7 2 4 - - 0.6
16/08:30am 22.4 25.7 20.7 90 1.1 SE 4 6 2 3 - - 0.6
16/08:00am 21.8 25.9 21.5 98 0.2 SSE 2 4 1 2 - - 0.6
16/07:30am 20.4 23.4 20.1 98 0.2 NNE 4 4 2 2 - - 0.6
16/07:00am 19.9 22.3 19.6 98 0.2 N 6 6 3 3 - - 0.6
16/06:30am 19.7 22.4 19.4 98 0.2 N 4 7 2 4 - - 0.6
16/06:00am 19.3 21.8 19.0 98 0.2 ESE 4 6 2 3 - - 0.6
16/05:30am 19.3 21.4 19.0 98 0.2 ESE 6 7 3 4 - - 0.6
16/05:00am 19.3 22.2 19.0 98 0.2 SW 2 4 1 2 - - 0.6
16/04:30am 19.3 21.8 19.0 98 0.2 WNW 4 9 2 5 - - 0.6
16/04:00am 19.5 22.1 19.2 98 0.2 WNW 4 6 2 3 - - 0.6
16/03:30am 19.4 22.3 19.1 98 0.2 W 2 7 1 4 - - 0.6
16/03:00am 19.8 23.3 19.5 98 0.2 CALM 0 0 0 0 - - 0.6
16/02:30am 19.7 22.8 19.4 98 0.2 WSW 2 6 1 3 - - 0.6
16/02:00am 19.7 22.0 19.4 98 0.2 WSW 6 6 3 3 - - 0.6
16/01:30am 19.9 22.7 19.6 98 0.2 WSW 4 6 2 3 - - 0.6
16/01:00am 19.8 22.5 19.5 98 0.2 WSW 4 6 2 3 - - 0.6
16/12:30am 20.0 22.8 19.7 98 0.2 WSW 4 6 2 3 - - 0.6
16/12:00am 20.3 23.3 20.0 98 0.2 W 4 6 2 3 - - 0.6
 
Date/Time
EDT
Temp
°C
App
Temp
°C
Dew
Point
°C
Rel
Hum
%
Delta-T
°C
Wind Press
QNH
hPa
Press
MSL
hPa
Rain since
9am
mm
Dir  Spd
km/h
Gust
km/h
Spd
kts
Gust
kts
15/11:30pm 20.5 23.6 20.2 98 0.2 NW 4 4 2 2 - - 0.6
15/11:00pm 21.0 25.1 20.7 98 0.2 CALM 0 0 0 0 - - 0.6
15/10:30pm 21.1 24.5 20.1 94 0.6 WSW 2 4 1 2 - - 0.6
15/10:00pm 21.5 24.9 20.1 92 0.9 WSW 2 4 1 2 - - 0.6
15/09:30pm 21.5 24.8 20.0 91 1.0 W 2 6 1 3 - - 0.6
15/09:00pm 22.1 25.8 20.0 88 1.3 CALM 0 2 0 1 - - 0.6
15/08:30pm 22.6 25.9 19.9 85 1.7 NNW 2 6 1 3 - - 0.6
15/08:00pm 23.2 26.0 19.6 80 2.3 NE 4 11 2 6 - - 0.6
15/07:30pm 23.5 25.0 19.0 76 2.9 NNE 9 17 5 9 - - 0.6
15/07:00pm 24.1 26.1 18.7 72 3.4 NNE 6 9 3 5 - - 0.6
15/06:30pm 24.3 25.9 19.1 73 3.3 NNW 9 11 5 6 - - 0.6
15/06:00pm 24.3 26.1 19.6 75 3.0 N 9 17 5 9 - - 0.6
15/05:30pm 25.2 27.6 20.9 77 2.8 SSE 9 17 5 9 - - 0.6
15/05:00pm 25.3 27.5 21.8 81 2.3 WNW 13 20 7 11 - - 0.6
15/04:43pm 23.5 21.3 20.4 83 2.0 WNW 32 52 17 28 - - 0.6
15/04:38pm 25.1 23.5 20.1 74 3.2 WNW 28 52 15 28 - - 0.2
15/04:30pm 29.0 31.2 20.4 59 5.7 WNW 9 30 5 16 - - 0.2
15/04:00pm 31.6 34.7 20.2 50 7.6 SW 4 7 2 4 - - 0.2
15/03:30pm 32.6 35.9 21.8 53 7.3 NW 7 13 4 7 - - 0.2
15/03:00pm 31.2 33.5 19.9 51 7.5 NNE 7 17 4 9 - - 0.2
15/02:30pm 31.0 34.5 21.8 58 6.2 NNE 6 11 3 6 - - 0.2
15/02:00pm 31.1 33.5 21.6 57 6.4 NNE 11 22 6 12 - - 0.2
15/01:30pm 30.7 33.7 22.0 59 5.9 NNE 9 19 5 10 - - 0.2
15/01:00pm 30.1 32.8 22.8 65 5.0 N 13 20 7 11 - - 0.2
15/12:30pm 29.1 31.8 22.1 66 4.7 NE 11 22 6 12 - - 0.2
15/12:00pm 28.7 31.3 22.0 67 4.5 NNE 11 26 6 14 - - 0.2
15/11:30am 27.8 31.4 22.3 72 3.7 ENE 7 20 4 11 - - 0.2
15/11:00am 27.4 31.1 22.6 75 3.3 NE 7 13 4 7 - - 0.2
15/10:30am 26.4 30.3 22.9 81 2.4 SE 7 11 4 6 - - 0.2
15/10:00am 25.2 28.9 22.3 84 1.9 ENE 6 7 3 4 - - 0.2
15/09:30am 24.2 28.5 21.9 87 1.5 W 2 4 1 2 - - 0.0
15/09:00am 23.4 27.5 22.2 93 0.8 N 4 6 2 3 - - 16.8
15/08:30am 22.6 26.3 22.3 98 0.2 NE 6 7 3 4 - - 16.8
15/08:00am 21.8 25.9 21.5 98 0.2 NE 2 4 1 2 - - 16.8
15/07:30am 21.7 26.1 21.4 98 0.2 CALM 0 2 0 1 - - 16.8
15/07:00am 21.3 24.7 21.0 98 0.2 NE 4 7 2 4 - - 16.8
15/06:30am 21.0 25.1 20.7 98 0.2 CALM 0 0 0 0 - - 16.8
15/06:00am 21.1 24.4 20.8 98 0.2 NNW 4 6 2 3 - - 16.8
15/05:30am 21.0 25.1 20.7 98 0.2 CALM 0 0 0 0 - - 16.8
15/05:00am 20.9 24.5 20.6 98 0.2 NNW 2 4 1 2 - - 16.8
15/04:30am 20.9 24.5 20.6 98 0.2 NNW 2 4 1 2 - - 16.8
15/04:00am 20.8 24.4 20.5 98 0.2 ENE 2 4 1 2 - - 16.8
15/03:30am 21.1 24.8 20.8 98 0.2 ESE 2 4 1 2 - - 16.8
15/03:00am 20.9 24.9 20.6 98 0.2 CALM 0 4 0 2 - - 16.8
15/02:30am 21.2 25.4 20.9 98 0.2 CALM 0 0 0 0 - - 16.8
15/02:00am 21.0 23.9 20.7 98 0.2 W 6 7 3 4 - - 16.8
15/01:30am 21.1 24.4 20.8 98 0.2 SSW 4 6 2 3 - - 16.8
15/01:00am 21.1 24.1 20.8 98 0.2 SW 6 7 3 4 - - 16.8
15/12:30am 21.2 24.2 20.9 98 0.2 SE 6 9 3 5 - - 16.8
15/12:00am 21.1 24.4 20.8 98 0.2 SSE 4 7 2 4 - - 16.8
 
Date/Time
EDT
Temp
°C
App
Temp
°C
Dew
Point
°C
Rel
Hum
%
Delta-T
°C
Wind Press
QNH
hPa
Press
MSL
hPa
Rain since
9am
mm
Dir  Spd
km/h
Gust
km/h
Spd
kts
Gust
kts
14/11:30pm 21.1 24.8 20.8 98 0.2 SSE 2 4 1 2 - - 16.8
14/11:00pm 21.2 24.0 20.9 98 0.2 SW 7 9 4 5 - - 16.8
14/10:30pm 21.4 25.7 21.1 98 0.2 CALM 0 0 0 0 - - 16.8
14/10:00pm 21.4 25.3 21.1 98 0.2 SSE 2 4 1 2 - - 16.8
14/09:30pm 21.5 24.1 21.2 98 0.2 SSE 9 11 5 6 - - 16.8
14/09:00pm 21.7 25.0 21.4 98 0.2 SW 6 9 3 5 - - 16.8
14/08:30pm 21.6 25.2 21.3 98 0.2 SSE 4 6 2 3 - - 16.8
14/08:00pm 21.8 25.9 21.5 98 0.2 ESE 2 6 1 3 - - 16.8
14/07:30pm 21.7 25.7 21.4 98 0.2 SSE 2 6 1 3 - - 16.8
14/07:00pm 21.8 25.1 21.5 98 0.2 ESE 6 9 3 5 - - 16.8
14/06:30pm 21.9 24.3 21.6 98 0.2 ESE 11 17 6 9 - - 16.8
14/06:00pm 22.0 26.2 21.7 98 0.2 WNW 2 4 1 2 - - 16.8
14/05:30pm 21.8 25.5 21.5 98 0.2 ENE 4 9 2 5 - - 16.8
14/05:00pm 22.8 26.3 22.1 96 0.5 E 7 9 4 5 - - 15.4
14/04:30pm 24.1 28.7 22.5 91 1.1 SSE 2 4 1 2 - - 15.2
14/04:00pm 23.7 28.4 23.4 98 0.2 SW 4 7 2 4 - - 15.2
14/03:30pm 22.2 26.5 21.9 98 0.2 NW 2 4 1 2 - - 15.2
14/03:00pm 21.7 25.4 21.4 98 0.2 NW 4 11 2 6 - - 15.0
14/02:30pm 22.0 25.2 21.7 98 0.2 E 7 13 4 7 - - 13.2
14/02:00pm 22.1 25.6 21.8 98 0.2 NNW 6 7 3 4 - - 12.8
14/01:30pm 22.5 26.0 21.8 96 0.5 N 6 7 3 4 - - 12.0
14/01:00pm 23.3 26.2 21.0 87 1.5 NNW 7 13 4 7 - - 11.2
14/12:30pm 22.9 26.4 22.1 95 0.5 N 7 9 4 5 - - 11.2
14/12:00pm 21.6 24.7 21.4 99 0.1 ESE 7 13 4 7 - - 11.2
14/11:30am 20.6 23.3 20.3 98 0.2 NW 6 7 3 4 - - 7.6
14/11:00am 21.0 23.3 20.7 98 0.2 NNE 9 11 5 6 - - 1.6
14/10:30am 21.7 25.9 20.9 95 0.5 CALM 0 0 0 0 - - 0.2
14/10:00am 22.0 25.2 20.6 92 0.9 E 4 7 2 4 - - 0.0
14/09:30am 22.0 26.0 20.5 91 1.0 CALM 0 4 0 2 - - 0.0
14/09:00am 21.9 25.6 21.4 97 0.3 NW 4 6 2 3 - - 17.4
14/08:30am 20.9 24.5 20.6 98 0.2 WSW 2 4 1 2 - - 17.4
14/08:00am 20.6 24.1 20.3 98 0.2 W 2 4 1 2 - - 17.4
14/07:30am 20.3 23.6 20.0 98 0.2 SSE 2 6 1 3 - - 17.4
14/07:00am 20.0 23.2 19.7 98 0.2 ESE 2 7 1 4 - - 17.4
14/06:30am 19.8 23.3 19.5 98 0.2 CALM 0 0 0 0 - - 17.4
14/06:00am 19.7 22.8 19.4 98 0.2 W 2 6 1 3 - - 17.4
14/05:30am 19.6 23.0 19.3 98 0.2 CALM 0 0 0 0 - - 17.4
14/05:00am 19.5 22.5 19.2 98 0.2 W 2 4 1 2 - - 17.4
14/04:30am 19.4 21.9 19.1 98 0.2 S 4 7 2 4 - - 17.4
14/04:00am 19.3 21.2 19.0 98 0.2 S 7 11 4 6 - - 17.4
14/03:30am 19.1 21.1 18.8 98 0.2 S 6 9 3 5 - - 17.4
14/03:00am 19.1 22.3 18.8 98 0.2 CALM 0 0 0 0 - - 17.4
14/02:30am 19.2 21.6 18.9 98 0.2 S 4 6 2 3 - - 17.4
14/02:00am 19.1 21.9 18.9 99 0.1 WSW 2 6 1 3 - - 17.4
14/01:30am 19.0 21.0 18.7 98 0.2 SSW 6 7 3 4 - - 17.4
14/01:00am 19.1 21.5 18.8 98 0.2 SE 4 6 2 3 - - 17.4
14/12:30am 19.2 22.4 18.9 98 0.2 CALM 0 0 0 0 - - 17.4
14/12:00am 19.2 22.4 18.9 98 0.2 CALM 0 0 0 0 - - 17.4
 
Date/Time
EDT
Temp
°C
App
Temp
°C
Dew
Point
°C
Rel
Hum
%
Delta-T
°C
Wind Press
QNH
hPa
Press
MSL
hPa
Rain since
9am
mm
Dir  Spd
km/h
Gust
km/h
Spd
kts
Gust
kts
13/11:30pm 19.1 21.5 18.8 98 0.2 NE 4 6 2 3 - - 17.4
13/11:00pm 19.0 21.4 18.7 98 0.2 S 4 7 2 4 - - 17.4
13/10:30pm 18.8 21.1 18.5 98 0.2 ESE 4 7 2 4 - - 17.4

Latest Capital City Observations: Canberra | Sydney | Melbourne | Brisbane | Adelaide | Perth | Hobart | Darwin

Other Formats:

Comma delimited format used in spreadsheet applications
http://www.bom.gov.au/fwo/IDN60901/IDN60901.94763.axf

JavaScript Object Notation format (JSON) in row-major order
http://www.bom.gov.au/fwo/IDN60901/IDN60901.94763.json